sensor_id;sensor_type;location;lat;lon;timestamp;P1;durP1;ratioP1;P2;durP2;ratioP2
55879;SDS011;41802;51.564;-1.838;2023-01-28T00:01:43;12.77;;;5.22;;
55879;SDS011;41802;51.564;-1.838;2023-01-28T00:04:10;13.48;;;4.85;;
55879;SDS011;41802;51.564;-1.838;2023-01-28T00:06:43;13.63;;;5.03;;
55879;SDS011;41802;51.564;-1.838;2023-01-28T00:09:12;16.17;;;5.38;;
55879;SDS011;41802;51.564;-1.838;2023-01-28T00:11:40;11.95;;;4.70;;
55879;SDS011;41802;51.564;-1.838;2023-01-28T00:14:09;13.45;;;5.20;;
55879;SDS011;41802;51.564;-1.838;2023-01-28T00:16:37;15.00;;;4.80;;
55879;SDS011;41802;51.564;-1.838;2023-01-28T00:19:04;10.83;;;4.03;;
55879;SDS011;41802;51.564;-1.838;2023-01-28T00:21:32;9.90;;;3.72;;
55879;SDS011;41802;51.564;-1.838;2023-01-28T00:24:03;10.32;;;3.70;;
55879;SDS011;41802;51.564;-1.838;2023-01-28T00:26:32;12.98;;;3.90;;
55879;SDS011;41802;51.564;-1.838;2023-01-28T00:29:00;13.07;;;3.72;;
55879;SDS011;41802;51.564;-1.838;2023-01-28T00:31:27;9.97;;;3.63;;
55879;SDS011;41802;51.564;-1.838;2023-01-28T00:33:55;10.82;;;3.47;;
55879;SDS011;41802;51.564;-1.838;2023-01-28T00:36:23;9.10;;;2.97;;
55879;SDS011;41802;51.564;-1.838;2023-01-28T00:38:52;13.40;;;3.65;;
55879;SDS011;41802;51.564;-1.838;2023-01-28T00:41:22;11.88;;;3.33;;
55879;SDS011;41802;51.564;-1.838;2023-01-28T00:43:50;15.70;;;3.60;;
55879;SDS011;41802;51.564;-1.838;2023-01-28T00:46:18;13.48;;;3.70;;
55879;SDS011;41802;51.564;-1.838;2023-01-28T00:48:46;10.23;;;3.58;;
55879;SDS011;41802;51.564;-1.838;2023-01-28T00:51:15;13.60;;;3.83;;
55879;SDS011;41802;51.564;-1.838;2023-01-28T00:53:43;12.27;;;4.05;;
55879;SDS011;41802;51.564;-1.838;2023-01-28T00:56:12;15.73;;;4.83;;
55879;SDS011;41802;51.564;-1.838;2023-01-28T00:58:41;15.15;;;4.40;;
55879;SDS011;41802;51.564;-1.838;2023-01-28T01:01:09;8.93;;;4.03;;
55879;SDS011;41802;51.564;-1.838;2023-01-28T01:03:37;11.95;;;4.05;;
55879;SDS011;41802;51.564;-1.838;2023-01-28T01:06:06;10.65;;;4.07;;
55879;SDS011;41802;51.564;-1.838;2023-01-28T01:08:34;14.57;;;4.57;;
55879;SDS011;41802;51.564;-1.838;2023-01-28T01:11:05;10.82;;;4.80;;
55879;SDS011;41802;51.564;-1.838;2023-01-28T01:13:33;11.60;;;4.32;;
55879;SDS011;41802;51.564;-1.838;2023-01-28T01:16:04;15.32;;;4.15;;
55879;SDS011;41802;51.564;-1.838;2023-01-28T01:18:32;15.05;;;5.03;;
55879;SDS011;41802;51.564;-1.838;2023-01-28T01:21:00;14.83;;;4.53;;
55879;SDS011;41802;51.564;-1.838;2023-01-28T01:23:29;13.35;;;4.53;;
55879;SDS011;41802;51.564;-1.838;2023-01-28T01:25:57;12.93;;;4.13;;
55879;SDS011;41802;51.564;-1.838;2023-01-28T01:28:25;14.85;;;4.78;;
55879;SDS011;41802;51.564;-1.838;2023-01-28T01:30:57;16.40;;;4.90;;
55879;SDS011;41802;51.564;-1.838;2023-01-28T01:33:26;12.67;;;4.27;;
55879;SDS011;41802;51.564;-1.838;2023-01-28T01:35:54;9.93;;;4.18;;
55879;SDS011;41802;51.564;-1.838;2023-01-28T01:38:24;23.30;;;7.07;;
55879;SDS011;41802;51.564;-1.838;2023-01-28T01:40:55;42.30;;;11.77;;
55879;SDS011;41802;51.564;-1.838;2023-01-28T01:43:24;36.10;;;9.40;;
55879;SDS011;41802;51.564;-1.838;2023-01-28T01:45:53;57.20;;;13.23;;
55879;SDS011;41802;51.564;-1.838;2023-01-28T01:48:24;59.85;;;13.48;;
55879;SDS011;41802;51.564;-1.838;2023-01-28T01:50:58;61.97;;;15.70;;
55879;SDS011;41802;51.564;-1.838;2023-01-28T01:53:28;69.80;;;15.00;;
55879;SDS011;41802;51.564;-1.838;2023-01-28T01:55:56;47.95;;;12.85;;
55879;SDS011;41802;51.564;-1.838;2023-01-28T01:58:27;42.60;;;11.23;;
55879;SDS011;41802;51.564;-1.838;2023-01-28T02:00:56;38.50;;;9.32;;
55879;SDS011;41802;51.564;-1.838;2023-01-28T02:03:27;38.05;;;10.43;;
55879;SDS011;41802;51.564;-1.838;2023-01-28T02:05:56;30.83;;;8.98;;
55879;SDS011;41802;51.564;-1.838;2023-01-28T02:08:25;30.90;;;10.38;;
55879;SDS011;41802;51.564;-1.838;2023-01-28T02:10:54;37.80;;;12.27;;
55879;SDS011;41802;51.564;-1.838;2023-01-28T02:13:23;47.25;;;14.18;;
55879;SDS011;41802;51.564;-1.838;2023-01-28T02:15:52;52.85;;;15.57;;
55879;SDS011;41802;51.564;-1.838;2023-01-28T02:18:20;41.53;;;14.13;;
55879;SDS011;41802;51.564;-1.838;2023-01-28T02:20:53;30.55;;;8.88;;
55879;SDS011;41802;51.564;-1.838;2023-01-28T02:23:30;24.87;;;7.87;;
55879;SDS011;41802;51.564;-1.838;2023-01-28T02:26:16;30.42;;;8.10;;
55879;SDS011;41802;51.564;-1.838;2023-01-28T02:28:51;24.13;;;7.78;;
55879;SDS011;41802;51.564;-1.838;2023-01-28T02:31:20;19.13;;;7.82;;
55879;SDS011;41802;51.564;-1.838;2023-01-28T02:33:53;20.45;;;7.78;;
55879;SDS011;41802;51.564;-1.838;2023-01-28T02:36:24;28.60;;;8.60;;
55879;SDS011;41802;51.564;-1.838;2023-01-28T02:38:53;15.60;;;6.57;;
55879;SDS011;41802;51.564;-1.838;2023-01-28T02:41:28;18.70;;;6.90;;
55879;SDS011;41802;51.564;-1.838;2023-01-28T02:44:00;19.77;;;6.80;;
55879;SDS011;41802;51.564;-1.838;2023-01-28T02:46:34;19.77;;;7.05;;
55879;SDS011;41802;51.564;-1.838;2023-01-28T02:49:25;22.27;;;6.23;;
55879;SDS011;41802;51.564;-1.838;2023-01-28T02:52:01;19.10;;;6.28;;
55879;SDS011;41802;51.564;-1.838;2023-01-28T02:54:34;17.45;;;6.75;;
55879;SDS011;41802;51.564;-1.838;2023-01-28T02:57:04;17.45;;;6.78;;
55879;SDS011;41802;51.564;-1.838;2023-01-28T02:59:38;20.17;;;6.60;;
55879;SDS011;41802;51.564;-1.838;2023-01-28T03:02:10;17.10;;;6.77;;
55879;SDS011;41802;51.564;-1.838;2023-01-28T03:04:40;18.50;;;7.43;;
55879;SDS011;41802;51.564;-1.838;2023-01-28T03:07:13;21.95;;;7.07;;
55879;SDS011;41802;51.564;-1.838;2023-01-28T03:09:44;15.52;;;5.95;;
55879;SDS011;41802;51.564;-1.838;2023-01-28T03:12:13;14.05;;;5.55;;
55879;SDS011;41802;51.564;-1.838;2023-01-28T03:15:02;14.00;;;5.07;;
55879;SDS011;41802;51.564;-1.838;2023-01-28T03:17:48;15.50;;;5.28;;
55879;SDS011;41802;51.564;-1.838;2023-01-28T03:20:37;15.02;;;5.55;;
55879;SDS011;41802;51.564;-1.838;2023-01-28T03:23:26;13.30;;;6.00;;
55879;SDS011;41802;51.564;-1.838;2023-01-28T03:26:12;18.63;;;6.32;;
55879;SDS011;41802;51.564;-1.838;2023-01-28T03:29:00;15.27;;;5.63;;
55879;SDS011;41802;51.564;-1.838;2023-01-28T03:31:53;12.68;;;4.95;;
55879;SDS011;41802;51.564;-1.838;2023-01-28T03:34:39;13.77;;;5.13;;
55879;SDS011;41802;51.564;-1.838;2023-01-28T03:37:24;11.20;;;4.45;;
55879;SDS011;41802;51.564;-1.838;2023-01-28T03:39:59;14.85;;;4.53;;
55879;SDS011;41802;51.564;-1.838;2023-01-28T03:42:27;16.27;;;5.47;;
55879;SDS011;41802;51.564;-1.838;2023-01-28T03:44:56;15.65;;;5.75;;
55879;SDS011;41802;51.564;-1.838;2023-01-28T03:47:28;17.33;;;6.15;;
55879;SDS011;41802;51.564;-1.838;2023-01-28T03:49:59;13.23;;;5.20;;
55879;SDS011;41802;51.564;-1.838;2023-01-28T03:52:28;12.93;;;6.15;;
55879;SDS011;41802;51.564;-1.838;2023-01-28T03:54:57;15.23;;;6.17;;
55879;SDS011;41802;51.564;-1.838;2023-01-28T03:57:25;19.08;;;6.07;;
55879;SDS011;41802;51.564;-1.838;2023-01-28T03:59:53;18.83;;;6.85;;
55879;SDS011;41802;51.564;-1.838;2023-01-28T04:02:21;19.33;;;6.00;;
55879;SDS011;41802;51.564;-1.838;2023-01-28T04:04:50;14.45;;;6.07;;
55879;SDS011;41802;51.564;-1.838;2023-01-28T04:07:18;19.33;;;6.80;;
55879;SDS011;41802;51.564;-1.838;2023-01-28T04:09:46;17.23;;;6.35;;
55879;SDS011;41802;51.564;-1.838;2023-01-28T04:12:13;16.83;;;6.22;;
55879;SDS011;41802;51.564;-1.838;2023-01-28T04:14:41;15.30;;;6.38;;
55879;SDS011;41802;51.564;-1.838;2023-01-28T04:17:09;15.65;;;6.63;;
55879;SDS011;41802;51.564;-1.838;2023-01-28T04:19:37;16.97;;;6.80;;
55879;SDS011;41802;51.564;-1.838;2023-01-28T04:22:09;17.38;;;6.20;;
55879;SDS011;41802;51.564;-1.838;2023-01-28T04:24:37;17.77;;;6.85;;
55879;SDS011;41802;51.564;-1.838;2023-01-28T04:27:04;21.90;;;6.25;;
55879;SDS011;41802;51.564;-1.838;2023-01-28T04:29:32;20.20;;;6.57;;
55879;SDS011;41802;51.564;-1.838;2023-01-28T04:32:00;21.50;;;6.70;;
55879;SDS011;41802;51.564;-1.838;2023-01-28T04:34:27;14.88;;;6.05;;
55879;SDS011;41802;51.564;-1.838;2023-01-28T04:36:55;16.30;;;6.35;;
55879;SDS011;41802;51.564;-1.838;2023-01-28T04:39:24;15.77;;;6.07;;
55879;SDS011;41802;51.564;-1.838;2023-01-28T04:41:51;15.90;;;6.25;;
55879;SDS011;41802;51.564;-1.838;2023-01-28T04:44:24;16.03;;;6.10;;
55879;SDS011;41802;51.564;-1.838;2023-01-28T04:46:52;16.20;;;6.70;;
55879;SDS011;41802;51.564;-1.838;2023-01-28T04:49:19;17.52;;;6.60;;
55879;SDS011;41802;51.564;-1.838;2023-01-28T04:51:47;17.85;;;6.07;;
55879;SDS011;41802;51.564;-1.838;2023-01-28T04:54:15;17.17;;;6.18;;
55879;SDS011;41802;51.564;-1.838;2023-01-28T04:56:44;15.77;;;6.13;;
55879;SDS011;41802;51.564;-1.838;2023-01-28T04:59:12;20.10;;;6.93;;
55879;SDS011;41802;51.564;-1.838;2023-01-28T05:01:39;14.13;;;5.57;;
55879;SDS011;41802;51.564;-1.838;2023-01-28T05:04:07;12.88;;;5.18;;
55879;SDS011;41802;51.564;-1.838;2023-01-28T05:06:35;15.63;;;5.82;;
55879;SDS011;41802;51.564;-1.838;2023-01-28T05:09:02;15.67;;;6.70;;
55879;SDS011;41802;51.564;-1.838;2023-01-28T05:11:30;13.73;;;6.30;;
55879;SDS011;41802;51.564;-1.838;2023-01-28T05:13:59;15.85;;;6.13;;
55879;SDS011;41802;51.564;-1.838;2023-01-28T05:16:29;18.65;;;6.47;;
55879;SDS011;41802;51.564;-1.838;2023-01-28T05:18:57;22.80;;;6.25;;
55879;SDS011;41802;51.564;-1.838;2023-01-28T05:21:25;16.80;;;6.00;;
55879;SDS011;41802;51.564;-1.838;2023-01-28T05:23:52;17.92;;;6.45;;
55879;SDS011;41802;51.564;-1.838;2023-01-28T05:26:20;16.48;;;6.15;;
55879;SDS011;41802;51.564;-1.838;2023-01-28T05:28:48;21.08;;;6.00;;
55879;SDS011;41802;51.564;-1.838;2023-01-28T05:31:18;13.50;;;5.50;;
55879;SDS011;41802;51.564;-1.838;2023-01-28T05:33:46;15.57;;;5.80;;
55879;SDS011;41802;51.564;-1.838;2023-01-28T05:36:13;16.65;;;5.97;;
55879;SDS011;41802;51.564;-1.838;2023-01-28T05:38:45;18.13;;;5.35;;
55879;SDS011;41802;51.564;-1.838;2023-01-28T05:41:13;16.98;;;5.78;;
55879;SDS011;41802;51.564;-1.838;2023-01-28T05:43:41;17.40;;;6.53;;
55879;SDS011;41802;51.564;-1.838;2023-01-28T05:46:08;14.73;;;5.57;;
55879;SDS011;41802;51.564;-1.838;2023-01-28T05:48:37;15.73;;;5.85;;
55879;SDS011;41802;51.564;-1.838;2023-01-28T05:51:05;15.40;;;5.72;;
55879;SDS011;41802;51.564;-1.838;2023-01-28T05:53:33;12.07;;;5.20;;
55879;SDS011;41802;51.564;-1.838;2023-01-28T05:56:00;18.13;;;5.75;;
55879;SDS011;41802;51.564;-1.838;2023-01-28T05:58:28;15.47;;;5.80;;
55879;SDS011;41802;51.564;-1.838;2023-01-28T06:00:57;15.18;;;5.40;;
55879;SDS011;41802;51.564;-1.838;2023-01-28T06:03:25;19.92;;;6.32;;
55879;SDS011;41802;51.564;-1.838;2023-01-28T06:05:54;18.48;;;6.38;;
55879;SDS011;41802;51.564;-1.838;2023-01-28T06:08:21;20.65;;;6.57;;
55879;SDS011;41802;51.564;-1.838;2023-01-28T06:10:49;17.53;;;6.20;;
55879;SDS011;41802;51.564;-1.838;2023-01-28T06:13:19;16.67;;;5.45;;
55879;SDS011;41802;51.564;-1.838;2023-01-28T06:15:47;15.82;;;5.90;;
55879;SDS011;41802;51.564;-1.838;2023-01-28T06:18:15;16.63;;;6.20;;
55879;SDS011;41802;51.564;-1.838;2023-01-28T06:20:43;19.75;;;6.28;;
55879;SDS011;41802;51.564;-1.838;2023-01-28T06:23:12;17.00;;;5.60;;
55879;SDS011;41802;51.564;-1.838;2023-01-28T06:25:40;16.48;;;5.93;;
55879;SDS011;41802;51.564;-1.838;2023-01-28T06:28:07;15.48;;;5.97;;
55879;SDS011;41802;51.564;-1.838;2023-01-28T06:30:37;17.02;;;6.25;;
55879;SDS011;41802;51.564;-1.838;2023-01-28T06:33:08;16.17;;;5.78;;
55879;SDS011;41802;51.564;-1.838;2023-01-28T06:35:36;16.00;;;5.87;;
55879;SDS011;41802;51.564;-1.838;2023-01-28T06:38:03;18.10;;;6.15;;
55879;SDS011;41802;51.564;-1.838;2023-01-28T06:40:32;15.35;;;5.50;;
55879;SDS011;41802;51.564;-1.838;2023-01-28T06:43:00;16.90;;;6.22;;
55879;SDS011;41802;51.564;-1.838;2023-01-28T06:45:27;15.05;;;6.03;;
55879;SDS011;41802;51.564;-1.838;2023-01-28T06:47:56;14.03;;;5.43;;
55879;SDS011;41802;51.564;-1.838;2023-01-28T06:50:27;15.15;;;5.80;;
55879;SDS011;41802;51.564;-1.838;2023-01-28T06:52:55;17.90;;;6.45;;
55879;SDS011;41802;51.564;-1.838;2023-01-28T06:55:23;17.85;;;6.57;;
55879;SDS011;41802;51.564;-1.838;2023-01-28T06:57:52;15.80;;;5.32;;
55879;SDS011;41802;51.564;-1.838;2023-01-28T07:00:19;19.27;;;6.30;;
55879;SDS011;41802;51.564;-1.838;2023-01-28T07:02:47;14.98;;;5.32;;
55879;SDS011;41802;51.564;-1.838;2023-01-28T07:05:15;19.40;;;6.45;;
55879;SDS011;41802;51.564;-1.838;2023-01-28T07:07:43;20.73;;;6.35;;
55879;SDS011;41802;51.564;-1.838;2023-01-28T07:10:12;18.80;;;6.93;;
55879;SDS011;41802;51.564;-1.838;2023-01-28T07:12:40;20.10;;;5.70;;
55879;SDS011;41802;51.564;-1.838;2023-01-28T07:15:12;17.55;;;6.82;;
55879;SDS011;41802;51.564;-1.838;2023-01-28T07:17:40;16.95;;;5.55;;
55879;SDS011;41802;51.564;-1.838;2023-01-28T07:20:11;17.80;;;6.88;;
55879;SDS011;41802;51.564;-1.838;2023-01-28T07:22:40;19.27;;;6.25;;
55879;SDS011;41802;51.564;-1.838;2023-01-28T07:25:09;16.30;;;6.40;;
55879;SDS011;41802;51.564;-1.838;2023-01-28T07:27:36;18.10;;;6.47;;
55879;SDS011;41802;51.564;-1.838;2023-01-28T07:30:04;17.27;;;6.85;;
55879;SDS011;41802;51.564;-1.838;2023-01-28T07:32:33;18.45;;;6.88;;
55879;SDS011;41802;51.564;-1.838;2023-01-28T07:35:01;19.60;;;6.95;;
55879;SDS011;41802;51.564;-1.838;2023-01-28T07:37:29;17.67;;;7.07;;
55879;SDS011;41802;51.564;-1.838;2023-01-28T07:39:56;21.13;;;7.30;;
55879;SDS011;41802;51.564;-1.838;2023-01-28T07:42:24;18.05;;;6.47;;
55879;SDS011;41802;51.564;-1.838;2023-01-28T07:44:52;18.05;;;6.45;;
55879;SDS011;41802;51.564;-1.838;2023-01-28T07:47:20;21.85;;;7.22;;
55879;SDS011;41802;51.564;-1.838;2023-01-28T07:49:49;18.80;;;6.80;;
55879;SDS011;41802;51.564;-1.838;2023-01-28T07:52:17;18.98;;;7.10;;
55879;SDS011;41802;51.564;-1.838;2023-01-28T07:54:45;20.92;;;7.32;;
55879;SDS011;41802;51.564;-1.838;2023-01-28T07:57:12;17.13;;;6.40;;
55879;SDS011;41802;51.564;-1.838;2023-01-28T07:59:41;17.30;;;7.50;;
55879;SDS011;41802;51.564;-1.838;2023-01-28T08:02:09;19.57;;;7.47;;
55879;SDS011;41802;51.564;-1.838;2023-01-28T08:04:37;30.98;;;7.10;;
55879;SDS011;41802;51.564;-1.838;2023-01-28T08:07:07;19.38;;;6.97;;
55879;SDS011;41802;51.564;-1.838;2023-01-28T08:09:35;16.85;;;6.95;;
55879;SDS011;41802;51.564;-1.838;2023-01-28T08:12:02;17.83;;;6.47;;
55879;SDS011;41802;51.564;-1.838;2023-01-28T08:14:30;18.83;;;6.93;;
55879;SDS011;41802;51.564;-1.838;2023-01-28T08:16:59;22.60;;;6.88;;
55879;SDS011;41802;51.564;-1.838;2023-01-28T08:19:27;17.77;;;7.57;;
55879;SDS011;41802;51.564;-1.838;2023-01-28T08:21:54;19.15;;;6.82;;
55879;SDS011;41802;51.564;-1.838;2023-01-28T08:24:24;18.98;;;7.18;;
55879;SDS011;41802;51.564;-1.838;2023-01-28T08:26:51;20.00;;;6.63;;
55879;SDS011;41802;51.564;-1.838;2023-01-28T08:29:19;17.85;;;6.60;;
55879;SDS011;41802;51.564;-1.838;2023-01-28T08:31:47;19.33;;;7.30;;
55879;SDS011;41802;51.564;-1.838;2023-01-28T08:34:15;20.70;;;7.05;;
55879;SDS011;41802;51.564;-1.838;2023-01-28T08:36:42;17.80;;;7.10;;
55879;SDS011;41802;51.564;-1.838;2023-01-28T08:39:10;20.77;;;6.80;;
55879;SDS011;41802;51.564;-1.838;2023-01-28T08:41:39;20.30;;;7.50;;
55879;SDS011;41802;51.564;-1.838;2023-01-28T08:44:06;18.92;;;6.70;;
55879;SDS011;41802;51.564;-1.838;2023-01-28T08:46:34;17.80;;;6.55;;
55879;SDS011;41802;51.564;-1.838;2023-01-28T08:49:02;17.92;;;7.28;;
55879;SDS011;41802;51.564;-1.838;2023-01-28T08:51:29;18.40;;;6.40;;
55879;SDS011;41802;51.564;-1.838;2023-01-28T08:53:58;18.17;;;6.45;;
55879;SDS011;41802;51.564;-1.838;2023-01-28T08:56:25;23.17;;;7.43;;
55879;SDS011;41802;51.564;-1.838;2023-01-28T08:58:57;21.08;;;7.50;;
55879;SDS011;41802;51.564;-1.838;2023-01-28T09:01:25;17.17;;;6.75;;
55879;SDS011;41802;51.564;-1.838;2023-01-28T09:03:54;18.70;;;6.57;;
55879;SDS011;41802;51.564;-1.838;2023-01-28T09:06:22;18.90;;;6.60;;
55879;SDS011;41802;51.564;-1.838;2023-01-28T09:08:50;17.02;;;6.32;;
55879;SDS011;41802;51.564;-1.838;2023-01-28T09:11:18;16.10;;;5.97;;
55879;SDS011;41802;51.564;-1.838;2023-01-28T09:13:45;21.90;;;7.38;;
55879;SDS011;41802;51.564;-1.838;2023-01-28T09:16:14;20.63;;;7.30;;
55879;SDS011;41802;51.564;-1.838;2023-01-28T09:18:42;19.08;;;6.35;;
55879;SDS011;41802;51.564;-1.838;2023-01-28T09:21:10;17.30;;;6.38;;
55879;SDS011;41802;51.564;-1.838;2023-01-28T09:23:38;18.20;;;6.40;;
55879;SDS011;41802;51.564;-1.838;2023-01-28T09:26:06;18.98;;;7.18;;
55879;SDS011;41802;51.564;-1.838;2023-01-28T09:28:34;13.90;;;6.03;;
55879;SDS011;41802;51.564;-1.838;2023-01-28T09:31:05;16.90;;;6.32;;
55879;SDS011;41802;51.564;-1.838;2023-01-28T09:33:35;20.58;;;6.05;;
55879;SDS011;41802;51.564;-1.838;2023-01-28T09:36:03;16.70;;;6.50;;
55879;SDS011;41802;51.564;-1.838;2023-01-28T09:38:32;17.50;;;5.90;;
55879;SDS011;41802;51.564;-1.838;2023-01-28T09:41:01;17.37;;;6.60;;
55879;SDS011;41802;51.564;-1.838;2023-01-28T09:43:34;17.15;;;6.90;;
55879;SDS011;41802;51.564;-1.838;2023-01-28T09:46:07;15.27;;;6.38;;
55879;SDS011;41802;51.564;-1.838;2023-01-28T09:48:39;16.48;;;6.03;;
55879;SDS011;41802;51.564;-1.838;2023-01-28T09:51:08;19.05;;;6.13;;
55879;SDS011;41802;51.564;-1.838;2023-01-28T09:53:38;17.90;;;6.33;;
55879;SDS011;41802;51.564;-1.838;2023-01-28T09:56:10;18.80;;;6.82;;
55879;SDS011;41802;51.564;-1.838;2023-01-28T09:58:40;18.48;;;7.20;;
55879;SDS011;41802;51.564;-1.838;2023-01-28T10:01:14;16.85;;;6.50;;
55879;SDS011;41802;51.564;-1.838;2023-01-28T10:03:50;18.80;;;6.50;;
55879;SDS011;41802;51.564;-1.838;2023-01-28T10:06:22;16.77;;;7.17;;
55879;SDS011;41802;51.564;-1.838;2023-01-28T10:11:37;18.55;;;7.03;;
55879;SDS011;41802;51.564;-1.838;2023-01-28T10:14:10;15.90;;;6.50;;
55879;SDS011;41802;51.564;-1.838;2023-01-28T10:16:40;17.13;;;6.20;;
55879;SDS011;41802;51.564;-1.838;2023-01-28T10:19:11;17.70;;;6.30;;
55879;SDS011;41802;51.564;-1.838;2023-01-28T10:21:42;17.25;;;6.53;;
55879;SDS011;41802;51.564;-1.838;2023-01-28T10:24:16;16.83;;;6.53;;
55879;SDS011;41802;51.564;-1.838;2023-01-28T10:26:44;18.27;;;7.25;;
55879;SDS011;41802;51.564;-1.838;2023-01-28T10:29:13;15.23;;;5.65;;
55879;SDS011;41802;51.564;-1.838;2023-01-28T10:31:43;17.90;;;6.47;;
55879;SDS011;41802;51.564;-1.838;2023-01-28T10:34:15;16.42;;;6.53;;
55879;SDS011;41802;51.564;-1.838;2023-01-28T10:36:45;16.63;;;7.28;;
55879;SDS011;41802;51.564;-1.838;2023-01-28T10:39:13;18.00;;;6.65;;
55879;SDS011;41802;51.564;-1.838;2023-01-28T10:41:41;17.75;;;6.47;;
55879;SDS011;41802;51.564;-1.838;2023-01-28T10:44:26;16.60;;;6.73;;
55879;SDS011;41802;51.564;-1.838;2023-01-28T10:46:55;21.10;;;6.43;;
55879;SDS011;41802;51.564;-1.838;2023-01-28T10:49:26;15.35;;;6.38;;
55879;SDS011;41802;51.564;-1.838;2023-01-28T10:51:58;15.90;;;6.90;;
55879;SDS011;41802;51.564;-1.838;2023-01-28T10:54:26;20.70;;;7.10;;
55879;SDS011;41802;51.564;-1.838;2023-01-28T10:56:56;16.30;;;6.67;;
55879;SDS011;41802;51.564;-1.838;2023-01-28T10:59:25;17.23;;;6.95;;
55879;SDS011;41802;51.564;-1.838;2023-01-28T11:01:54;21.55;;;7.63;;
55879;SDS011;41802;51.564;-1.838;2023-01-28T11:04:23;17.33;;;7.18;;
55879;SDS011;41802;51.564;-1.838;2023-01-28T11:06:57;20.20;;;7.80;;
55879;SDS011;41802;51.564;-1.838;2023-01-28T11:09:27;18.33;;;6.87;;
55879;SDS011;41802;51.564;-1.838;2023-01-28T11:11:56;18.10;;;7.38;;
55879;SDS011;41802;51.564;-1.838;2023-01-28T11:14:24;15.18;;;6.68;;
55879;SDS011;41802;51.564;-1.838;2023-01-28T11:16:52;14.02;;;5.28;;
55879;SDS011;41802;51.564;-1.838;2023-01-28T11:19:26;16.38;;;6.57;;
55879;SDS011;41802;51.564;-1.838;2023-01-28T11:21:57;19.97;;;7.20;;
55879;SDS011;41802;51.564;-1.838;2023-01-28T11:24:25;18.00;;;7.03;;
55879;SDS011;41802;51.564;-1.838;2023-01-28T11:26:54;16.17;;;5.68;;
55879;SDS011;41802;51.564;-1.838;2023-01-28T11:29:24;17.25;;;7.03;;
55879;SDS011;41802;51.564;-1.838;2023-01-28T11:31:52;17.48;;;6.15;;
55879;SDS011;41802;51.564;-1.838;2023-01-28T11:34:20;16.93;;;6.23;;
55879;SDS011;41802;51.564;-1.838;2023-01-28T11:36:52;15.95;;;6.00;;
55879;SDS011;41802;51.564;-1.838;2023-01-28T11:39:22;15.88;;;5.95;;
55879;SDS011;41802;51.564;-1.838;2023-01-28T11:41:51;17.30;;;6.13;;
55879;SDS011;41802;51.564;-1.838;2023-01-28T11:44:20;14.52;;;5.75;;
55879;SDS011;41802;51.564;-1.838;2023-01-28T11:46:58;14.03;;;5.97;;
55879;SDS011;41802;51.564;-1.838;2023-01-28T11:49:29;15.27;;;5.85;;
55879;SDS011;41802;51.564;-1.838;2023-01-28T11:52:03;15.13;;;5.78;;
55879;SDS011;41802;51.564;-1.838;2023-01-28T11:54:40;13.68;;;5.10;;
55879;SDS011;41802;51.564;-1.838;2023-01-28T11:57:20;13.27;;;4.78;;
55879;SDS011;41802;51.564;-1.838;2023-01-28T11:59:55;14.97;;;5.27;;
55879;SDS011;41802;51.564;-1.838;2023-01-28T12:02:29;14.48;;;5.50;;
55879;SDS011;41802;51.564;-1.838;2023-01-28T12:05:15;16.30;;;5.80;;
55879;SDS011;41802;51.564;-1.838;2023-01-28T12:07:48;16.20;;;6.07;;
55879;SDS011;41802;51.564;-1.838;2023-01-28T12:10:23;13.73;;;6.20;;
55879;SDS011;41802;51.564;-1.838;2023-01-28T12:13:01;17.07;;;6.53;;
55879;SDS011;41802;51.564;-1.838;2023-01-28T12:15:37;18.75;;;5.85;;
55879;SDS011;41802;51.564;-1.838;2023-01-28T12:18:10;18.35;;;6.50;;
55879;SDS011;41802;51.564;-1.838;2023-01-28T12:20:43;16.17;;;6.22;;
55879;SDS011;41802;51.564;-1.838;2023-01-28T12:23:19;14.85;;;6.55;;
55879;SDS011;41802;51.564;-1.838;2023-01-28T12:25:56;16.37;;;6.57;;
55879;SDS011;41802;51.564;-1.838;2023-01-28T12:28:29;15.63;;;5.68;;
55879;SDS011;41802;51.564;-1.838;2023-01-28T12:31:09;15.25;;;5.82;;
55879;SDS011;41802;51.564;-1.838;2023-01-28T12:33:44;14.02;;;5.47;;
55879;SDS011;41802;51.564;-1.838;2023-01-28T12:36:19;16.73;;;6.18;;
55879;SDS011;41802;51.564;-1.838;2023-01-28T12:38:52;16.07;;;5.90;;
55879;SDS011;41802;51.564;-1.838;2023-01-28T12:41:30;15.57;;;5.72;;
55879;SDS011;41802;51.564;-1.838;2023-01-28T12:43:59;16.48;;;5.53;;
55879;SDS011;41802;51.564;-1.838;2023-01-28T12:46:30;13.73;;;5.28;;
55879;SDS011;41802;51.564;-1.838;2023-01-28T12:49:02;16.60;;;5.40;;
55879;SDS011;41802;51.564;-1.838;2023-01-28T12:51:31;12.20;;;5.07;;
55879;SDS011;41802;51.564;-1.838;2023-01-28T12:54:01;14.55;;;5.45;;
55879;SDS011;41802;51.564;-1.838;2023-01-28T12:56:34;16.95;;;6.00;;
55879;SDS011;41802;51.564;-1.838;2023-01-28T12:59:07;15.70;;;6.45;;
55879;SDS011;41802;51.564;-1.838;2023-01-28T13:01:38;15.38;;;5.90;;
55879;SDS011;41802;51.564;-1.838;2023-01-28T13:04:08;15.53;;;5.07;;
55879;SDS011;41802;51.564;-1.838;2023-01-28T13:06:37;16.85;;;5.25;;
55879;SDS011;41802;51.564;-1.838;2023-01-28T13:09:10;18.52;;;6.07;;
55879;SDS011;41802;51.564;-1.838;2023-01-28T13:11:42;14.63;;;5.03;;
55879;SDS011;41802;51.564;-1.838;2023-01-28T13:14:10;14.32;;;5.22;;
55879;SDS011;41802;51.564;-1.838;2023-01-28T13:16:38;15.13;;;5.20;;
55879;SDS011;41802;51.564;-1.838;2023-01-28T13:19:07;12.88;;;4.80;;
55879;SDS011;41802;51.564;-1.838;2023-01-28T13:21:35;18.45;;;5.07;;
55879;SDS011;41802;51.564;-1.838;2023-01-28T13:24:22;18.23;;;6.13;;
55879;SDS011;41802;51.564;-1.838;2023-01-28T13:26:53;14.50;;;5.47;;
55879;SDS011;41802;51.564;-1.838;2023-01-28T13:29:27;14.20;;;5.47;;
55879;SDS011;41802;51.564;-1.838;2023-01-28T13:31:56;13.02;;;5.20;;
55879;SDS011;41802;51.564;-1.838;2023-01-28T13:34:34;13.10;;;5.38;;
55879;SDS011;41802;51.564;-1.838;2023-01-28T13:37:03;14.75;;;4.80;;
55879;SDS011;41802;51.564;-1.838;2023-01-28T13:39:38;12.60;;;4.85;;
55879;SDS011;41802;51.564;-1.838;2023-01-28T13:42:24;14.17;;;5.40;;
55879;SDS011;41802;51.564;-1.838;2023-01-28T13:44:52;14.85;;;5.15;;
55879;SDS011;41802;51.564;-1.838;2023-01-28T13:47:24;9.05;;;3.30;;
55879;SDS011;41802;51.564;-1.838;2023-01-28T13:49:54;9.80;;;3.97;;
55879;SDS011;41802;51.564;-1.838;2023-01-28T13:52:25;11.48;;;4.28;;
55879;SDS011;41802;51.564;-1.838;2023-01-28T13:54:54;15.27;;;4.53;;
55879;SDS011;41802;51.564;-1.838;2023-01-28T14:00:10;15.27;;;4.53;;
55879;SDS011;41802;51.564;-1.838;2023-01-28T14:05:29;11.10;;;3.63;;
55879;SDS011;41802;51.564;-1.838;2023-01-28T14:08:12;10.77;;;3.50;;
55879;SDS011;41802;51.564;-1.838;2023-01-28T14:10:48;9.93;;;3.53;;
55879;SDS011;41802;51.564;-1.838;2023-01-28T14:13:29;13.75;;;4.25;;
55879;SDS011;41802;51.564;-1.838;2023-01-28T14:16:04;13.65;;;3.85;;
55879;SDS011;41802;51.564;-1.838;2023-01-28T14:18:36;14.63;;;4.07;;
55879;SDS011;41802;51.564;-1.838;2023-01-28T14:21:08;14.40;;;4.73;;
55879;SDS011;41802;51.564;-1.838;2023-01-28T14:23:37;12.85;;;3.97;;
55879;SDS011;41802;51.564;-1.838;2023-01-28T14:26:14;12.77;;;4.07;;
55879;SDS011;41802;51.564;-1.838;2023-01-28T14:28:46;15.40;;;4.55;;
55879;SDS011;41802;51.564;-1.838;2023-01-28T14:31:17;13.18;;;4.43;;
55879;SDS011;41802;51.564;-1.838;2023-01-28T14:33:47;14.23;;;5.30;;
55879;SDS011;41802;51.564;-1.838;2023-01-28T14:36:15;14.05;;;4.68;;
55879;SDS011;41802;51.564;-1.838;2023-01-28T14:38:45;13.10;;;4.55;;
55879;SDS011;41802;51.564;-1.838;2023-01-28T14:41:19;11.82;;;4.60;;
55879;SDS011;41802;51.564;-1.838;2023-01-28T14:43:47;13.68;;;5.55;;
55879;SDS011;41802;51.564;-1.838;2023-01-28T14:46:18;11.10;;;4.63;;
55879;SDS011;41802;51.564;-1.838;2023-01-28T14:48:49;14.70;;;4.82;;